createdAt,value
2023-05-24T00:00:52.632Z,23.76
2023-05-24T00:01:52.144Z,23.77
2023-05-24T00:02:52.219Z,23.76
2023-05-24T00:03:52.286Z,23.75
2023-05-24T00:04:52.148Z,23.75
2023-05-24T00:05:52.112Z,23.76
2023-05-24T00:06:52.106Z,23.76
2023-05-24T00:07:52.101Z,23.75
2023-05-24T00:08:52.065Z,23.75
2023-05-24T00:09:52.082Z,23.74
2023-05-24T00:10:52.074Z,23.75
2023-05-24T00:11:52.044Z,23.74
2023-05-24T00:12:52.053Z,23.74
2023-05-24T00:13:52.034Z,23.73
2023-05-24T00:14:52.016Z,23.73
2023-05-24T00:15:52.016Z,23.74
2023-05-24T00:16:52.062Z,23.73
2023-05-24T00:17:52.028Z,23.73
2023-05-24T00:18:51.995Z,23.73
2023-05-24T00:19:52.035Z,23.73
2023-05-24T00:20:52.150Z,23.73
2023-05-24T00:21:52.005Z,23.73
2023-05-24T00:22:52.091Z,23.72
2023-05-24T00:23:51.968Z,23.72
2023-05-24T00:24:51.958Z,23.72
2023-05-24T00:25:51.949Z,23.72
2023-05-24T00:26:51.936Z,23.72
2023-05-24T00:27:51.956Z,23.72
2023-05-24T00:28:51.990Z,23.72
2023-05-24T00:29:52.008Z,23.72
2023-05-24T00:30:52.072Z,23.71
2023-05-24T00:31:52.144Z,23.72
2023-05-24T00:34:11.201Z,23.64
2023-05-24T00:35:11.180Z,23.67
2023-05-24T00:36:11.395Z,23.68
2023-05-24T00:37:11.178Z,23.69
2023-05-24T00:38:11.172Z,23.69
2023-05-24T00:39:11.151Z,23.69
2023-05-24T00:40:11.167Z,23.69
2023-05-24T00:41:11.414Z,23.70
2023-05-24T00:42:11.142Z,23.69
2023-05-24T00:43:11.145Z,23.68
2023-05-24T00:44:11.215Z,23.68
2023-05-24T00:45:11.127Z,23.68
2023-05-24T00:46:11.417Z,23.68
2023-05-24T00:47:11.097Z,23.68
2023-05-24T00:48:11.119Z,23.68
2023-05-24T00:49:11.094Z,23.68
2023-05-24T00:50:11.276Z,23.68
2023-05-24T00:51:11.402Z,23.68
2023-05-24T00:52:11.076Z,23.68
2023-05-24T00:53:11.066Z,23.68
2023-05-24T00:54:11.072Z,23.68
2023-05-24T00:55:11.039Z,23.68
2023-05-24T00:56:11.408Z,23.68
2023-05-24T00:57:11.031Z,23.68
2023-05-24T00:58:11.012Z,23.67
2023-05-24T00:59:11.020Z,23.67
2023-05-24T01:00:11.009Z,23.67
2023-05-24T01:01:11.418Z,23.66
2023-05-24T01:02:11.032Z,23.67
2023-05-24T01:03:11.051Z,23.67
2023-05-24T01:04:10.989Z,23.66
2023-05-24T01:05:11.075Z,23.67
2023-05-24T01:06:10.975Z,23.66
2023-05-24T01:07:10.938Z,23.66
2023-05-24T01:08:10.956Z,23.65
2023-05-24T01:09:10.929Z,23.65
2023-05-24T01:10:10.944Z,23.66
2023-05-24T01:11:10.947Z,23.65
2023-05-24T01:12:10.964Z,23.65
2023-05-24T01:13:10.932Z,23.65
2023-05-24T01:14:10.915Z,23.65
2023-05-24T01:15:10.990Z,23.64
2023-05-24T01:16:10.902Z,23.65
2023-05-24T01:17:10.907Z,23.64
2023-05-24T01:18:10.868Z,23.65
2023-05-24T01:19:10.863Z,23.65
2023-05-24T01:20:10.930Z,23.65
2023-05-24T01:21:10.867Z,23.64
2023-05-24T01:22:10.844Z,23.64
2023-05-24T01:23:10.840Z,23.64
2023-05-24T01:24:10.844Z,23.64
2023-05-24T01:25:10.836Z,23.65
2023-05-24T01:26:10.921Z,23.64
2023-05-24T01:27:10.808Z,23.64
2023-05-24T01:28:10.810Z,23.64
2023-05-24T01:29:10.798Z,23.64
2023-05-24T01:30:10.790Z,23.63
2023-05-24T01:31:10.900Z,23.64
2023-05-24T01:32:10.785Z,23.64
2023-05-24T01:33:10.765Z,23.64
2023-05-24T01:34:10.770Z,23.63
2023-05-24T01:35:10.748Z,23.63
2023-05-24T01:36:10.804Z,23.63
2023-05-24T01:37:10.746Z,23.62
2023-05-24T01:38:10.736Z,23.63
2023-05-24T01:39:10.738Z,23.62
2023-05-24T01:40:10.720Z,23.62
2023-05-24T01:41:10.725Z,23.63
2023-05-24T01:42:10.706Z,23.62
2023-05-24T01:43:10.701Z,23.62
2023-05-24T01:44:10.693Z,23.62
2023-05-24T01:45:10.679Z,23.61
2023-05-24T01:46:10.733Z,23.62
2023-05-24T01:47:10.832Z,23.61
2023-05-24T01:48:10.733Z,23.62
2023-05-24T01:49:10.754Z,23.62
2023-05-24T01:50:10.766Z,23.62
2023-05-24T01:51:10.770Z,23.62
2023-05-24T01:52:10.796Z,23.61
2023-05-24T01:53:10.793Z,23.61
2023-05-24T01:54:10.812Z,23.61
2023-05-24T01:55:10.842Z,23.61
2023-05-24T01:56:10.863Z,23.61
2023-05-24T01:57:10.840Z,23.61
2023-05-24T01:58:10.883Z,23.60
2023-05-24T01:59:10.881Z,23.60
2023-05-24T02:00:10.919Z,23.60
2023-05-24T02:01:10.992Z,23.61
2023-05-24T02:02:11.136Z,23.60
2023-05-24T02:03:11.082Z,23.59
2023-05-24T02:04:11.090Z,23.60
2023-05-24T02:05:11.136Z,23.59
2023-05-24T02:06:11.173Z,23.60
2023-05-24T02:07:11.163Z,23.59
2023-05-24T02:08:11.213Z,23.59
2023-05-24T02:09:11.248Z,23.59
2023-05-24T02:10:11.277Z,23.58
2023-05-24T02:11:11.317Z,23.58
2023-05-24T02:12:11.330Z,23.57
2023-05-24T02:13:11.357Z,23.57
2023-05-24T02:14:11.403Z,23.58
2023-05-24T02:15:11.443Z,23.57
2023-05-24T02:16:11.463Z,23.57
2023-05-24T02:17:11.479Z,23.57
2023-05-24T02:18:11.504Z,23.56
2023-05-24T02:19:11.517Z,23.57
2023-05-24T02:20:11.609Z,23.56
2023-05-24T02:21:11.625Z,23.56
2023-05-24T02:22:11.673Z,23.56
2023-05-24T02:23:11.739Z,23.56
2023-05-24T02:24:11.735Z,23.56
2023-05-24T02:25:11.779Z,23.55
2023-05-24T02:26:11.812Z,23.56
2023-05-24T02:27:11.841Z,23.56
2023-05-24T02:28:11.873Z,23.56
2023-05-24T02:29:11.887Z,23.56
2023-05-24T02:30:11.937Z,23.56
2023-05-24T02:31:12.019Z,23.55
2023-05-24T02:32:11.971Z,23.56
2023-05-24T02:33:12.049Z,23.55
2023-05-24T02:34:12.000Z,23.55
2023-05-24T02:35:12.064Z,23.55
2023-05-24T02:36:12.344Z,23.55
2023-05-24T02:37:12.127Z,23.55
2023-05-24T02:38:12.121Z,23.55
2023-05-24T02:39:12.156Z,23.54
2023-05-24T02:40:12.175Z,23.55
2023-05-24T02:41:12.216Z,23.55
2023-05-24T02:42:12.252Z,23.55
2023-05-24T02:43:12.271Z,23.55
2023-05-24T02:44:12.296Z,23.54
2023-05-24T02:45:12.346Z,23.54
2023-05-24T02:46:12.378Z,23.55
2023-05-24T02:47:12.397Z,23.54
2023-05-24T02:48:12.419Z,23.54
2023-05-24T02:49:12.456Z,23.54
2023-05-24T02:50:12.486Z,23.53
2023-05-24T02:51:12.510Z,23.53
2023-05-24T02:52:12.540Z,23.53
2023-05-24T02:53:12.548Z,23.53
2023-05-24T02:54:12.562Z,23.54
2023-05-24T02:55:12.609Z,23.54
2023-05-24T02:56:12.658Z,23.53
2023-05-24T02:57:12.683Z,23.54
2023-05-24T02:58:12.728Z,23.53
2023-05-24T02:59:12.780Z,23.52
2023-05-24T03:00:12.813Z,23.53
2023-05-24T03:01:12.894Z,23.52
2023-05-24T03:02:12.859Z,23.53
2023-05-24T03:03:12.971Z,23.53
2023-05-24T03:04:12.901Z,23.53
2023-05-24T03:05:12.910Z,23.53
2023-05-24T03:06:12.932Z,23.52
2023-05-24T03:07:12.966Z,23.52
2023-05-24T03:08:12.989Z,23.52
2023-05-24T03:09:13.012Z,23.51
2023-05-24T03:10:14.978Z,23.51
2023-05-24T03:11:13.026Z,23.51
2023-05-24T03:12:13.022Z,23.51
2023-05-24T03:13:13.024Z,23.51
2023-05-24T03:14:12.998Z,23.51
2023-05-24T03:15:12.983Z,23.50
2023-05-24T03:16:13.056Z,23.50
2023-05-24T03:17:12.988Z,23.50
2023-05-24T03:18:12.960Z,23.50
2023-05-24T03:19:12.967Z,23.50
2023-05-24T03:20:13.016Z,23.51
2023-05-24T03:21:12.996Z,23.50
2023-05-24T03:22:12.944Z,23.50
2023-05-24T03:23:12.943Z,23.50
2023-05-24T03:24:12.919Z,23.50
2023-05-24T03:25:12.931Z,23.50
2023-05-24T03:26:12.926Z,23.50
2023-05-24T03:27:12.914Z,23.50
2023-05-24T03:28:12.889Z,23.50
2023-05-24T03:29:12.883Z,23.50
2023-05-24T03:30:12.888Z,23.50
2023-05-24T03:31:12.917Z,23.50
2023-05-24T03:32:12.883Z,23.50
2023-05-24T03:33:12.873Z,23.50
2023-05-24T03:34:12.842Z,23.50
2023-05-24T03:35:12.992Z,23.51
2023-05-24T03:36:12.987Z,23.50
2023-05-24T03:37:12.923Z,23.50
2023-05-24T03:38:12.974Z,23.50
2023-05-24T03:39:12.884Z,23.50
2023-05-24T03:40:12.918Z,23.49
2023-05-24T03:41:12.819Z,23.50
2023-05-24T03:42:12.809Z,23.49
2023-05-24T03:43:12.789Z,23.49
2023-05-24T03:44:12.784Z,23.49
2023-05-24T03:45:12.774Z,23.48
2023-05-24T03:46:12.816Z,23.49
2023-05-24T03:47:12.754Z,23.49
2023-05-24T03:48:12.758Z,23.49
2023-05-24T03:49:12.742Z,23.49
2023-05-24T03:50:12.752Z,23.48
2023-05-24T03:51:12.749Z,23.49
2023-05-24T03:52:12.737Z,23.49
2023-05-24T03:53:12.732Z,23.48
2023-05-24T03:54:12.704Z,23.48
2023-05-24T03:55:12.724Z,23.48
2023-05-24T03:56:12.710Z,23.49
2023-05-24T03:57:12.692Z,23.48
2023-05-24T03:58:12.719Z,23.48
2023-05-24T03:59:12.666Z,23.48
2023-05-24T04:00:12.698Z,23.48
2023-05-24T04:01:21.998Z,23.48
2023-05-24T04:02:13.725Z,23.47
2023-05-24T04:03:12.745Z,23.48
2023-05-24T04:04:12.671Z,23.48
2023-05-24T04:05:12.624Z,23.48
2023-05-24T04:06:12.633Z,23.49
2023-05-24T04:07:12.612Z,23.48
2023-05-24T04:08:12.804Z,23.48
2023-05-24T04:09:12.607Z,23.48
2023-05-24T04:10:12.613Z,23.48
2023-05-24T04:11:12.608Z,23.48
2023-05-24T04:12:12.587Z,23.48
2023-05-24T04:13:12.586Z,23.48
2023-05-24T04:14:12.575Z,23.48
2023-05-24T04:15:12.584Z,23.48
2023-05-24T04:16:12.624Z,23.47
2023-05-24T04:17:12.743Z,23.48
2023-05-24T04:18:12.771Z,23.47
2023-05-24T04:19:12.725Z,23.48
2023-05-24T04:20:12.854Z,23.48
2023-05-24T04:21:12.768Z,23.48
2023-05-24T04:22:12.772Z,23.47
2023-05-24T04:23:12.792Z,23.47
2023-05-24T04:24:12.803Z,23.47
2023-05-24T04:25:12.883Z,23.48
2023-05-24T04:26:12.867Z,23.48
2023-05-24T04:27:12.864Z,23.48
2023-05-24T04:28:12.891Z,23.48
2023-05-24T04:29:12.916Z,23.48
2023-05-24T04:30:12.972Z,23.48
2023-05-24T04:31:13.024Z,23.48
2023-05-24T04:32:13.054Z,23.47
2023-05-24T04:33:13.134Z,23.47
2023-05-24T04:34:13.118Z,23.48
2023-05-24T04:35:13.164Z,23.47
2023-05-24T04:36:13.181Z,23.48
2023-05-24T04:37:13.223Z,23.47
2023-05-24T04:38:13.275Z,23.47
2023-05-24T04:39:13.283Z,23.47
2023-05-24T04:40:13.286Z,23.47
2023-05-24T04:41:13.322Z,23.47
2023-05-24T04:42:13.377Z,23.47
2023-05-24T04:43:13.400Z,23.47
2023-05-24T04:44:13.427Z,23.47
2023-05-24T04:45:13.431Z,23.47
2023-05-24T04:46:13.479Z,23.48
2023-05-24T04:47:13.478Z,23.47
2023-05-24T04:48:13.502Z,23.47
2023-05-24T04:49:13.519Z,23.47
2023-05-24T04:50:13.551Z,23.47
2023-05-24T04:51:13.563Z,23.47
2023-05-24T04:52:13.606Z,23.47
2023-05-24T04:53:13.624Z,23.46
2023-05-24T04:54:13.651Z,23.46
2023-05-24T04:55:13.680Z,23.47
2023-05-24T04:56:13.702Z,23.46
2023-05-24T04:57:13.732Z,23.45
2023-05-24T04:58:13.957Z,23.46
2023-05-24T04:59:13.749Z,23.47
2023-05-24T05:00:13.793Z,23.45
2023-05-24T05:01:13.831Z,23.47
2023-05-24T05:02:13.991Z,23.46
2023-05-24T05:03:13.969Z,23.46
2023-05-24T05:04:13.910Z,23.46
2023-05-24T05:05:13.905Z,23.46
2023-05-24T05:06:13.931Z,23.46
2023-05-24T05:07:13.945Z,23.45
2023-05-24T05:08:14.005Z,23.45
2023-05-24T05:09:14.057Z,23.46
2023-05-24T05:10:14.062Z,23.46
2023-05-24T05:11:14.105Z,23.46
2023-05-24T05:12:14.130Z,23.46
2023-05-24T05:13:14.141Z,23.45
2023-05-24T05:14:14.157Z,23.45
2023-05-24T05:15:14.193Z,23.46
2023-05-24T05:16:14.290Z,23.46
2023-05-24T05:17:14.232Z,23.45
2023-05-24T05:18:14.248Z,23.45
2023-05-24T05:19:14.251Z,23.45
2023-05-24T05:20:14.560Z,23.44
2023-05-24T05:21:14.498Z,23.45
2023-05-24T05:22:14.325Z,23.45
2023-05-24T05:23:14.467Z,23.44
2023-05-24T05:24:14.379Z,23.44
2023-05-24T05:25:14.405Z,23.46
2023-05-24T05:26:15.205Z,23.47
2023-05-24T05:27:14.589Z,23.48
2023-05-24T05:28:14.513Z,23.47
2023-05-24T05:29:14.536Z,23.48
2023-05-24T05:30:14.564Z,23.49
2023-05-24T05:31:15.026Z,23.51
2023-05-24T05:32:14.610Z,23.56
2023-05-24T05:33:14.680Z,23.58
2023-05-24T05:34:14.604Z,23.63
2023-05-24T05:35:14.651Z,23.69
2023-05-24T05:36:14.679Z,23.73
2023-05-24T05:37:14.701Z,23.79
2023-05-24T05:38:14.741Z,23.84
2023-05-24T05:39:14.813Z,23.88
2023-05-24T05:40:14.813Z,23.94
2023-05-24T05:41:15.017Z,23.98
2023-05-24T05:42:14.870Z,24.03
2023-05-24T05:43:14.886Z,24.10
2023-05-24T05:44:14.900Z,24.16
2023-05-24T05:45:14.958Z,24.22
2023-05-24T05:46:15.021Z,24.25
2023-05-24T05:47:15.033Z,24.28
2023-05-24T05:48:15.076Z,24.31
2023-05-24T05:49:15.124Z,24.34
2023-05-24T05:50:15.160Z,24.36
2023-05-24T05:51:15.254Z,24.37
2023-05-24T05:52:15.267Z,24.37
2023-05-24T05:53:15.339Z,24.39
2023-05-24T05:54:15.375Z,24.40
2023-05-24T05:55:15.432Z,24.40
2023-05-24T05:56:15.484Z,24.41
2023-05-24T05:57:15.470Z,24.42
2023-05-24T05:58:15.472Z,24.42
2023-05-24T05:59:15.509Z,24.43
2023-05-24T06:00:15.527Z,24.44
2023-05-24T06:01:15.557Z,24.45
2023-05-24T06:02:15.596Z,24.46
2023-05-24T06:03:15.687Z,24.46
2023-05-24T06:04:15.759Z,24.47
2023-05-24T06:05:16.279Z,24.48
2023-05-24T06:06:15.623Z,24.50
2023-05-24T06:07:15.661Z,24.50
2023-05-24T06:08:15.673Z,24.52
2023-05-24T06:09:15.681Z,24.55
2023-05-24T06:10:15.698Z,24.57
2023-05-24T06:11:16.038Z,24.60
2023-05-24T06:12:15.726Z,24.63
2023-05-24T06:13:15.758Z,24.67
2023-05-24T06:14:15.822Z,24.69
2023-05-24T06:15:15.878Z,24.70
2023-05-24T06:16:15.933Z,24.72
2023-05-24T06:17:15.906Z,24.72
2023-05-24T06:18:15.958Z,24.73
2023-05-24T06:19:15.982Z,24.73
2023-05-24T06:20:16.220Z,24.74
2023-05-24T06:21:16.082Z,24.74
2023-05-24T06:22:16.108Z,24.74
2023-05-24T06:23:16.136Z,24.74
2023-05-24T06:24:16.193Z,24.75
2023-05-24T06:25:16.217Z,24.74
2023-05-24T06:26:16.242Z,24.73
2023-05-24T06:27:16.313Z,24.73
2023-05-24T06:28:16.321Z,24.72
2023-05-24T06:29:16.343Z,24.73
2023-05-24T06:30:16.433Z,24.74
2023-05-24T06:31:16.506Z,24.74
2023-05-24T06:32:16.482Z,24.75
2023-05-24T06:33:16.545Z,24.74
2023-05-24T06:34:16.564Z,24.73
2023-05-24T06:35:16.595Z,24.73
2023-05-24T06:36:17.031Z,24.74
2023-05-24T06:37:16.697Z,24.76
2023-05-24T06:38:16.736Z,24.79
2023-05-24T06:39:16.768Z,24.81
2023-05-24T06:40:16.786Z,24.85
2023-05-24T06:41:16.854Z,24.85
2023-05-24T06:42:16.867Z,24.87
2023-05-24T06:43:16.864Z,24.88
2023-05-24T06:44:16.890Z,24.91
2023-05-24T06:45:16.912Z,24.93
2023-05-24T06:46:17.266Z,24.95
2023-05-24T06:47:17.107Z,24.97
2023-05-24T06:48:17.100Z,24.98
2023-05-24T06:49:17.066Z,24.99
2023-05-24T06:50:17.120Z,24.95
2023-05-24T06:51:17.544Z,24.89
2023-05-24T06:52:17.187Z,24.86
2023-05-24T06:53:17.200Z,24.83
2023-05-24T06:54:17.315Z,24.79
2023-05-24T06:55:17.323Z,24.79
2023-05-24T06:56:17.559Z,24.78
2023-05-24T06:57:17.297Z,24.77
2023-05-24T06:58:17.344Z,24.76
2023-05-24T06:59:17.362Z,24.74
2023-05-24T07:00:17.367Z,24.71
2023-05-24T07:01:17.560Z,24.69
2023-05-24T07:02:17.464Z,24.69
2023-05-24T07:03:17.528Z,24.69
2023-05-24T07:04:17.578Z,24.70
2023-05-24T07:05:17.532Z,24.73
2023-05-24T07:06:17.556Z,24.80
2023-05-24T07:07:18.097Z,24.86
2023-05-24T07:08:17.705Z,24.93
2023-05-24T07:09:17.682Z,24.98
2023-05-24T07:10:17.709Z,25.03
2023-05-24T07:11:17.728Z,25.08
2023-05-24T07:12:17.671Z,25.14
2023-05-24T07:13:17.683Z,25.18
2023-05-24T07:14:17.710Z,25.21
2023-05-24T07:15:17.777Z,25.24
2023-05-24T07:16:18.076Z,25.27
2023-05-24T07:17:17.823Z,25.29
2023-05-24T07:18:17.834Z,25.33
2023-05-24T07:19:17.847Z,25.34
2023-05-24T07:20:17.937Z,25.33
2023-05-24T07:21:17.965Z,25.32
2023-05-24T07:22:18.042Z,25.34
2023-05-24T07:23:18.028Z,25.35
2023-05-24T07:24:18.075Z,25.36
2023-05-24T07:25:18.073Z,25.36
2023-05-24T07:26:18.581Z,25.33
2023-05-24T07:27:18.123Z,25.28
2023-05-24T07:28:18.246Z,25.20
2023-05-24T07:29:18.409Z,25.12
2023-05-24T07:30:30.945Z,25.00
2023-05-24T07:31:19.547Z,24.91
2023-05-24T07:32:18.626Z,24.81
2023-05-24T07:33:18.254Z,24.70
2023-05-24T07:34:18.165Z,24.61
2023-05-24T07:35:18.183Z,24.53
2023-05-24T07:36:18.163Z,24.47
2023-05-24T07:37:18.556Z,24.43
2023-05-24T07:38:18.986Z,24.41
2023-05-24T07:39:18.138Z,24.41
2023-05-24T07:40:18.143Z,24.41
2023-05-24T07:41:18.225Z,24.42
2023-05-24T07:42:18.138Z,24.43
2023-05-24T07:43:18.191Z,24.43
2023-05-24T07:44:18.243Z,24.43
2023-05-24T07:45:18.262Z,24.45
2023-05-24T07:46:18.385Z,24.46
2023-05-24T07:47:18.364Z,24.48
2023-05-24T07:48:18.484Z,24.50
2023-05-24T07:49:18.411Z,24.52
2023-05-24T07:50:18.417Z,24.53
2023-05-24T07:51:18.573Z,24.55
2023-05-24T07:52:18.427Z,24.55
2023-05-24T07:53:18.486Z,24.55
2023-05-24T07:54:18.535Z,24.56
2023-05-24T07:55:18.538Z,24.57
2023-05-24T07:56:18.572Z,24.58
2023-05-24T07:57:18.571Z,24.61
2023-05-24T07:58:18.644Z,24.62
2023-05-24T07:59:18.650Z,24.62
2023-05-24T08:00:18.673Z,24.63
2023-05-24T08:01:19.090Z,24.64
2023-05-24T08:02:18.717Z,24.64
2023-05-24T08:03:18.782Z,24.64
2023-05-24T08:04:18.746Z,24.65
2023-05-24T08:05:18.760Z,24.65
2023-05-24T08:06:18.779Z,24.68
2023-05-24T08:07:18.931Z,24.73
2023-05-24T08:08:18.855Z,24.76
2023-05-24T08:09:18.877Z,24.81
2023-05-24T08:10:18.943Z,24.88
2023-05-24T08:11:19.060Z,24.95
2023-05-24T08:12:19.003Z,25.02
2023-05-24T08:13:19.052Z,25.08
2023-05-24T08:14:19.062Z,25.14
2023-05-24T08:15:19.068Z,25.19
2023-05-24T08:16:19.142Z,25.22
2023-05-24T08:17:19.169Z,25.26
2023-05-24T08:18:19.239Z,25.28
2023-05-24T08:19:19.983Z,25.32
2023-05-24T08:20:19.363Z,25.31
2023-05-24T08:21:19.601Z,25.27
2023-05-24T08:22:19.388Z,25.29
2023-05-24T08:23:19.432Z,25.29
2023-05-24T08:24:19.601Z,25.29
2023-05-24T08:25:19.444Z,25.32
2023-05-24T08:26:19.486Z,25.30
2023-05-24T08:27:19.518Z,25.31
2023-05-24T08:28:19.643Z,25.29
2023-05-24T08:29:19.609Z,25.31
2023-05-24T08:30:19.553Z,25.30
2023-05-24T08:31:19.658Z,25.28
2023-05-24T08:32:19.626Z,25.28
2023-05-24T08:33:19.635Z,25.24
2023-05-24T08:34:19.670Z,25.20
2023-05-24T08:35:21.684Z,25.17
2023-05-24T08:36:20.098Z,25.14
2023-05-24T08:37:20.100Z,25.12
2023-05-24T08:38:19.815Z,25.06
2023-05-24T08:39:19.813Z,24.98
2023-05-24T08:40:19.980Z,24.90
2023-05-24T08:41:20.089Z,24.81
2023-05-24T08:42:19.947Z,24.72
2023-05-24T08:43:19.971Z,24.64
2023-05-24T08:44:19.966Z,24.56
2023-05-24T08:45:20.118Z,24.48
2023-05-24T08:46:20.133Z,24.40
2023-05-24T08:47:20.147Z,24.32
2023-05-24T08:48:20.233Z,24.28
2023-05-24T08:49:20.212Z,24.22
2023-05-24T08:50:20.651Z,24.15
2023-05-24T08:51:20.308Z,24.09
2023-05-24T08:52:20.344Z,24.04
2023-05-24T08:53:20.379Z,24.01
2023-05-24T08:54:20.399Z,23.98
2023-05-24T08:55:20.453Z,23.94
2023-05-24T08:56:20.425Z,23.91
2023-05-24T08:57:20.457Z,23.89
2023-05-24T08:58:20.497Z,23.87
2023-05-24T08:59:20.508Z,23.85
2023-05-24T09:00:20.538Z,23.82
2023-05-24T09:01:20.661Z,23.82
2023-05-24T09:02:20.549Z,23.80
2023-05-24T09:03:20.620Z,23.79
2023-05-24T09:04:20.628Z,23.77
2023-05-24T09:05:20.592Z,23.76
2023-05-24T09:06:20.637Z,23.75
2023-05-24T09:07:20.672Z,23.73
2023-05-24T09:08:20.695Z,23.72
2023-05-24T09:09:20.695Z,23.70
2023-05-24T09:10:20.739Z,23.69
2023-05-24T09:11:20.800Z,23.68
2023-05-24T09:12:32.589Z,23.66
2023-05-24T09:13:21.827Z,23.65
2023-05-24T09:14:20.779Z,23.65
2023-05-24T09:15:20.772Z,23.64
2023-05-24T09:16:21.173Z,23.64
2023-05-24T09:17:20.768Z,23.64
2023-05-24T09:18:21.578Z,23.64
2023-05-24T09:19:20.777Z,23.64
2023-05-24T09:20:20.760Z,23.65
2023-05-24T09:21:21.105Z,23.63
2023-05-24T09:22:20.715Z,23.64
2023-05-24T09:23:20.701Z,23.64
2023-05-24T09:24:20.698Z,23.64
2023-05-24T09:25:20.712Z,23.64
2023-05-24T09:26:21.101Z,23.64
2023-05-24T09:27:20.662Z,23.63
2023-05-24T09:28:20.666Z,23.65
2023-05-24T09:29:20.707Z,23.71
2023-05-24T09:30:20.715Z,23.79
2023-05-24T09:31:21.183Z,23.88
2023-05-24T09:32:20.778Z,23.97
2023-05-24T09:33:20.774Z,24.07
2023-05-24T09:34:20.817Z,24.18
2023-05-24T09:35:20.836Z,24.29
2023-05-24T09:36:20.927Z,24.40
2023-05-24T09:37:22.005Z,24.50
2023-05-24T09:38:20.953Z,24.61
2023-05-24T09:39:20.946Z,24.68
2023-05-24T09:40:20.915Z,24.76
2023-05-24T09:41:20.920Z,24.83
2023-05-24T09:42:20.922Z,24.89
2023-05-24T09:43:20.916Z,24.96
2023-05-24T09:44:20.913Z,25.01
2023-05-24T09:45:20.883Z,25.07
2023-05-24T09:46:20.927Z,25.11
2023-05-24T09:47:21.183Z,25.15
2023-05-24T09:48:20.860Z,25.18
2023-05-24T09:49:20.859Z,25.22
2023-05-24T09:50:20.860Z,25.27
2023-05-24T09:51:20.884Z,25.29
2023-05-24T09:52:21.122Z,25.31
2023-05-24T09:53:20.852Z,25.30
2023-05-24T09:54:20.836Z,25.32
2023-05-24T09:55:20.813Z,25.32
2023-05-24T09:56:20.822Z,25.32
2023-05-24T09:57:20.809Z,25.30
2023-05-24T09:58:20.800Z,25.30
2023-05-24T09:59:20.796Z,25.28
2023-05-24T10:00:20.842Z,25.29
2023-05-24T10:01:20.803Z,25.27
2023-05-24T10:02:20.768Z,25.26
2023-05-24T10:03:20.828Z,25.24
2023-05-24T10:04:20.863Z,25.21
2023-05-24T10:05:20.743Z,25.21
2023-05-24T10:06:20.755Z,25.20
2023-05-24T10:07:20.730Z,25.21
2023-05-24T10:08:20.745Z,25.22
2023-05-24T10:09:20.726Z,25.21
2023-05-24T10:10:20.701Z,25.21
2023-05-24T10:11:20.738Z,25.21
2023-05-24T10:12:20.703Z,25.22
2023-05-24T10:13:20.684Z,25.26
2023-05-24T10:14:20.692Z,25.28
2023-05-24T10:15:20.684Z,25.31
2023-05-24T10:16:20.732Z,25.35
2023-05-24T10:17:20.798Z,25.40
2023-05-24T10:18:20.691Z,25.43
2023-05-24T10:19:20.633Z,25.46
2023-05-24T10:20:20.723Z,25.49
2023-05-24T10:21:21.209Z,25.49
2023-05-24T10:22:20.618Z,25.44
2023-05-24T10:23:20.644Z,25.42
2023-05-24T10:24:20.609Z,25.43
2023-05-24T10:25:20.619Z,25.42
2023-05-24T10:26:20.648Z,25.43
2023-05-24T10:27:20.657Z,25.41
2023-05-24T10:28:20.679Z,25.41
2023-05-24T10:29:20.724Z,25.41
2023-05-24T10:30:20.910Z,25.38
2023-05-24T10:31:20.900Z,25.34
2023-05-24T10:32:20.821Z,25.30
2023-05-24T10:33:20.830Z,25.25
2023-05-24T10:34:20.829Z,25.21
2023-05-24T10:35:20.870Z,25.17
2023-05-24T10:36:20.927Z,25.14
2023-05-24T10:37:20.967Z,25.11
2023-05-24T10:38:21.007Z,25.09
2023-05-24T10:39:21.046Z,25.06
2023-05-24T10:40:21.036Z,25.05
2023-05-24T10:41:21.080Z,25.02
2023-05-24T10:42:21.106Z,25.00
2023-05-24T10:43:21.208Z,24.98
2023-05-24T10:44:21.216Z,24.95
2023-05-24T10:45:21.224Z,24.94
2023-05-24T10:46:21.316Z,24.92
2023-05-24T10:47:21.338Z,24.89
2023-05-24T10:48:21.347Z,24.88
2023-05-24T10:49:21.321Z,24.86
2023-05-24T10:50:21.332Z,24.85
2023-05-24T10:51:21.361Z,24.84
2023-05-24T10:52:21.486Z,24.82
2023-05-24T10:53:21.444Z,24.80
2023-05-24T10:54:21.498Z,24.79
2023-05-24T10:55:21.508Z,24.78
2023-05-24T10:56:21.521Z,24.77
2023-05-24T10:57:21.552Z,24.75
2023-05-24T10:58:21.592Z,24.73
2023-05-24T10:59:21.638Z,24.72
2023-05-24T11:00:48.067Z,24.71
2023-05-24T11:01:23.180Z,24.69
2023-05-24T11:02:21.731Z,24.68
2023-05-24T11:03:21.656Z,24.66
2023-05-24T11:04:21.621Z,24.65
2023-05-24T11:05:21.655Z,24.64
2023-05-24T11:06:21.604Z,24.62
2023-05-24T11:07:21.654Z,24.60
2023-05-24T11:08:21.621Z,24.56
2023-05-24T11:09:21.584Z,24.53
2023-05-24T11:10:21.595Z,24.53
2023-05-24T11:11:25.605Z,24.52
2023-05-24T11:12:22.603Z,24.50
2023-05-24T11:13:21.566Z,24.50
2023-05-24T11:14:21.620Z,24.50
2023-05-24T11:15:21.579Z,24.49
2023-05-24T11:16:21.567Z,24.48
2023-05-24T11:17:21.797Z,24.46
2023-05-24T11:18:21.683Z,24.44
2023-05-24T11:19:21.531Z,24.42
2023-05-24T11:20:21.566Z,24.40
2023-05-24T11:21:21.522Z,24.40
2023-05-24T11:22:21.665Z,24.40
2023-05-24T11:23:21.501Z,24.40
2023-05-24T11:24:21.486Z,24.40
2023-05-24T11:25:21.497Z,24.40
2023-05-24T11:26:21.469Z,24.40
2023-05-24T11:27:21.469Z,24.40
2023-05-24T11:28:21.493Z,24.41
2023-05-24T11:29:21.515Z,24.42
2023-05-24T11:30:21.507Z,24.43
2023-05-24T11:31:21.526Z,24.44
2023-05-24T11:32:21.685Z,24.45
2023-05-24T11:33:21.562Z,24.45
2023-05-24T11:34:21.630Z,24.46
2023-05-24T11:35:21.689Z,24.47
2023-05-24T11:36:21.733Z,24.47
2023-05-24T11:37:28.637Z,24.49
2023-05-24T11:38:24.816Z,24.49
2023-05-24T11:39:21.766Z,24.49
2023-05-24T11:40:21.765Z,24.50
2023-05-24T11:41:21.782Z,24.51
2023-05-24T11:42:21.755Z,24.51
2023-05-24T11:43:21.737Z,24.52
2023-05-24T11:44:21.787Z,24.52
2023-05-24T11:45:21.730Z,24.52
2023-05-24T11:46:21.815Z,24.53
2023-05-24T11:47:21.837Z,24.53
2023-05-24T11:48:21.708Z,24.53
2023-05-24T11:49:21.709Z,24.54
2023-05-24T11:50:21.681Z,24.55
2023-05-24T11:51:21.689Z,24.54
2023-05-24T11:52:21.678Z,24.55
2023-05-24T11:53:21.727Z,24.54
2023-05-24T11:54:21.668Z,24.55
2023-05-24T11:55:21.659Z,24.55
2023-05-24T11:56:21.636Z,24.55
2023-05-24T11:57:21.666Z,24.55
2023-05-24T11:58:21.632Z,24.55
2023-05-24T11:59:21.656Z,24.55
2023-05-24T12:00:21.613Z,24.55
2023-05-24T12:01:21.600Z,24.55
2023-05-24T12:02:21.685Z,24.55
2023-05-24T12:03:21.747Z,24.55
2023-05-24T12:04:21.674Z,24.55
2023-05-24T12:05:21.575Z,24.55
2023-05-24T12:06:21.601Z,24.55
2023-05-24T12:07:21.678Z,24.55
2023-05-24T12:08:21.590Z,24.55
2023-05-24T12:09:21.544Z,24.55
2023-05-24T12:10:22.939Z,24.54
2023-05-24T12:11:21.551Z,24.55
2023-05-24T12:12:27.094Z,24.55
2023-05-24T12:13:22.542Z,24.54
2023-05-24T12:14:21.543Z,24.54
2023-05-24T12:15:21.514Z,24.54
2023-05-24T12:16:21.530Z,24.55
2023-05-24T12:17:21.699Z,24.55
2023-05-24T12:18:21.508Z,24.54
2023-05-24T12:19:32.325Z,24.54
2023-05-24T12:20:22.518Z,24.54
2023-05-24T12:21:21.482Z,24.54
2023-05-24T12:22:21.489Z,24.54
2023-05-24T12:23:21.473Z,24.54
2023-05-24T12:24:21.466Z,24.53
2023-05-24T12:25:21.454Z,24.54
2023-05-24T12:26:21.444Z,24.54
2023-05-24T12:27:21.458Z,24.54
2023-05-24T12:28:21.433Z,24.54
2023-05-24T12:29:21.434Z,24.54
2023-05-24T12:30:21.467Z,24.54
2023-05-24T12:31:21.560Z,24.53
2023-05-24T12:32:21.499Z,24.53
2023-05-24T12:33:21.395Z,24.53
2023-05-24T12:34:21.398Z,24.53
2023-05-24T12:35:21.383Z,24.53
2023-05-24T12:36:21.395Z,24.53
2023-05-24T12:37:21.469Z,24.52
2023-05-24T12:38:21.471Z,24.52
2023-05-24T12:39:21.522Z,24.52
2023-05-24T12:40:21.607Z,24.53
2023-05-24T12:41:21.617Z,24.52
2023-05-24T12:42:21.631Z,24.52
2023-05-24T12:43:21.702Z,24.52
2023-05-24T12:44:21.822Z,24.52
2023-05-24T12:45:21.816Z,24.52
2023-05-24T12:46:21.868Z,24.52
2023-05-24T12:47:22.471Z,24.52
2023-05-24T12:48:21.938Z,24.51
2023-05-24T12:49:21.977Z,24.51
2023-05-24T12:50:22.001Z,24.51
2023-05-24T12:51:22.076Z,24.51
2023-05-24T12:52:22.933Z,24.51
2023-05-24T12:53:22.148Z,24.50
2023-05-24T12:54:22.186Z,24.50